createdAt,value
2017-09-19T00:00:22.145Z,70.40
2017-09-19T00:01:22.141Z,74.30
2017-09-19T00:02:22.137Z,74.10
2017-09-19T00:03:22.134Z,83.00
2017-09-19T00:04:22.131Z,74.00
2017-09-19T00:05:22.127Z,68.90
2017-09-19T00:06:22.126Z,75.40
2017-09-19T00:07:22.121Z,76.70
2017-09-19T00:08:22.118Z,73.00
2017-09-19T00:09:22.116Z,72.90
2017-09-19T00:10:22.127Z,71.20
2017-09-19T00:11:22.109Z,81.10
2017-09-19T00:12:22.105Z,76.30
2017-09-19T00:13:22.103Z,89.00
2017-09-19T00:14:22.101Z,73.40
2017-09-19T00:15:22.095Z,79.40
2017-09-19T00:16:22.092Z,86.50
2017-09-19T00:17:22.089Z,76.00
2017-09-19T00:18:22.089Z,71.80
2017-09-19T00:19:22.082Z,82.70
2017-09-19T00:20:22.080Z,73.60
2017-09-19T00:21:22.077Z,85.30
2017-09-19T00:22:22.074Z,70.70
2017-09-19T00:23:22.071Z,76.60
2017-09-19T00:24:22.068Z,79.80
2017-09-19T00:25:22.066Z,80.50
2017-09-19T00:26:22.063Z,73.50
2017-09-19T00:27:22.057Z,78.30
2017-09-19T00:28:22.055Z,81.10
2017-09-19T00:29:22.051Z,86.50
2017-09-19T00:30:22.047Z,89.70
2017-09-19T00:31:22.043Z,81.40
2017-09-19T00:32:22.041Z,82.00
2017-09-19T00:33:22.039Z,90.40
2017-09-19T00:34:22.036Z,89.00
2017-09-19T00:35:22.032Z,86.60
2017-09-19T00:36:22.029Z,83.80
2017-09-19T00:37:22.025Z,79.70
2017-09-19T00:38:22.023Z,84.60
2017-09-19T00:39:22.020Z,81.90
2017-09-19T00:40:22.015Z,75.60
2017-09-19T00:41:22.012Z,82.20
2017-09-19T00:42:22.009Z,91.90
2017-09-19T00:43:22.005Z,99.00
2017-09-19T00:44:22.003Z,85.90
2017-09-19T00:45:22.001Z,86.40
2017-09-19T00:46:22.002Z,81.90
2017-09-19T00:47:21.993Z,80.50
2017-09-19T00:48:21.990Z,85.70
2017-09-19T00:49:21.989Z,90.30
2017-09-19T00:50:21.985Z,72.60
2017-09-19T00:51:21.981Z,79.90
2017-09-19T00:52:21.977Z,90.40
2017-09-19T00:53:21.975Z,84.70
2017-09-19T00:54:21.971Z,93.60
2017-09-19T00:55:21.971Z,90.70
2017-09-19T00:56:21.963Z,92.90
2017-09-19T00:57:21.960Z,93.60
2017-09-19T00:58:21.958Z,92.10
2017-09-19T00:59:21.955Z,81.60
2017-09-19T01:00:21.952Z,85.30
2017-09-19T01:01:21.948Z,89.10
2017-09-19T01:02:21.944Z,80.90
2017-09-19T01:03:21.941Z,78.80
2017-09-19T01:04:21.939Z,86.20
2017-09-19T01:05:21.935Z,86.70
2017-09-19T01:06:21.931Z,80.90
2017-09-19T01:07:21.929Z,79.00
2017-09-19T01:08:21.925Z,94.00
2017-09-19T01:09:21.923Z,94.00
2017-09-19T01:10:21.920Z,77.40
2017-09-19T01:11:21.915Z,88.20
2017-09-19T01:12:21.913Z,81.70
2017-09-19T01:13:21.908Z,75.50
2017-09-19T01:14:21.907Z,81.40
2017-09-19T01:15:21.903Z,84.10
2017-09-19T01:16:21.901Z,89.80
2017-09-19T01:17:21.897Z,84.00
2017-09-19T01:18:21.892Z,85.20
2017-09-19T01:19:21.893Z,83.20
2017-09-19T01:20:21.886Z,83.20
2017-09-19T01:21:21.882Z,79.30
2017-09-19T01:22:21.880Z,87.70
2017-09-19T01:23:21.876Z,79.20
2017-09-19T01:24:21.875Z,74.10
2017-09-19T01:25:21.870Z,87.00
2017-09-19T01:26:21.868Z,86.20
2017-09-19T01:27:21.862Z,78.50
2017-09-19T01:28:21.860Z,82.60
2017-09-19T01:29:21.857Z,89.70
2017-09-19T01:30:21.854Z,83.90
2017-09-19T01:31:21.849Z,95.50
2017-09-19T01:32:21.851Z,85.20
2017-09-19T01:33:21.845Z,82.90
2017-09-19T01:34:21.841Z,94.10
2017-09-19T01:35:21.837Z,90.90
2017-09-19T01:36:21.833Z,96.00
2017-09-19T01:37:21.838Z,86.20
2017-09-19T01:38:21.828Z,72.70
2017-09-19T01:39:21.824Z,84.60
2017-09-19T01:40:21.821Z,82.70
2017-09-19T01:41:21.817Z,85.40
2017-09-19T01:42:21.815Z,80.50
2017-09-19T01:43:21.812Z,80.40
2017-09-19T01:44:21.808Z,82.90
2017-09-19T01:45:21.804Z,78.40
2017-09-19T01:46:21.801Z,80.30
2017-09-19T01:47:21.797Z,81.80
2017-09-19T01:48:21.795Z,80.70
2017-09-19T01:49:21.791Z,76.80
2017-09-19T01:50:21.789Z,78.40
2017-09-19T01:51:21.785Z,79.80
2017-09-19T01:52:21.782Z,85.20
2017-09-19T01:53:21.778Z,83.90
2017-09-19T01:54:21.775Z,86.60
2017-09-19T01:55:21.772Z,77.00
2017-09-19T01:56:21.769Z,83.80
2017-09-19T01:57:21.772Z,77.60
2017-09-19T01:58:21.762Z,86.20
2017-09-19T01:59:21.759Z,96.50
2017-09-19T02:00:21.763Z,86.50
2017-09-19T02:01:21.763Z,83.70
2017-09-19T02:02:21.794Z,79.70
2017-09-19T02:03:21.758Z,81.10
2017-09-19T02:04:21.753Z,84.00
2017-09-19T02:05:21.752Z,84.90
2017-09-19T02:06:21.744Z,86.10
2017-09-19T02:07:21.739Z,86.70
2017-09-19T02:08:21.736Z,84.90
2017-09-19T02:09:21.734Z,77.10
2017-09-19T02:10:21.732Z,77.50
2017-09-19T02:11:21.726Z,83.50
2017-09-19T02:12:21.722Z,81.50
2017-09-19T02:13:21.721Z,79.30
2017-09-19T02:14:21.722Z,86.80
2017-09-19T02:15:21.717Z,93.60
2017-09-19T02:16:21.714Z,86.20
2017-09-19T02:17:21.716Z,96.70
2017-09-19T02:18:21.710Z,88.70
2017-09-19T02:19:21.703Z,78.60
2017-09-19T02:20:21.702Z,88.90
2017-09-19T02:21:21.699Z,88.60
2017-09-19T02:22:21.691Z,81.00
2017-09-19T02:23:21.688Z,80.50
2017-09-19T02:24:21.685Z,84.70
2017-09-19T02:25:21.681Z,78.80
2017-09-19T02:26:21.678Z,79.90
2017-09-19T02:27:21.673Z,83.20
2017-09-19T02:28:21.671Z,87.00
2017-09-19T02:29:21.669Z,82.00
2017-09-19T02:30:21.668Z,76.60
2017-09-19T02:31:21.666Z,74.70
2017-09-19T02:32:21.664Z,72.60
2017-09-19T02:33:21.661Z,84.50
2017-09-19T02:34:21.658Z,76.60
2017-09-19T02:35:21.653Z,74.90
2017-09-19T02:36:21.650Z,70.40
2017-09-19T02:37:21.646Z,75.70
2017-09-19T02:38:21.639Z,85.90
2017-09-19T02:39:21.635Z,86.40
2017-09-19T02:40:21.640Z,90.60
2017-09-19T02:41:21.630Z,81.70
2017-09-19T02:42:21.627Z,89.40
2017-09-19T02:43:21.623Z,81.80
2017-09-19T02:44:21.619Z,88.50
2017-09-19T02:45:21.617Z,85.50
2017-09-19T02:46:21.617Z,87.40
2017-09-19T02:47:21.615Z,98.20
2017-09-19T02:48:21.617Z,82.00
2017-09-19T02:49:21.607Z,92.50
2017-09-19T02:50:21.606Z,93.60
2017-09-19T02:51:21.601Z,100.40
2017-09-19T02:52:21.599Z,91.40
2017-09-19T02:53:21.595Z,91.10
2017-09-19T02:54:21.592Z,78.40
2017-09-19T02:55:21.584Z,85.50
2017-09-19T02:56:21.584Z,102.40
2017-09-19T02:57:21.579Z,81.60
2017-09-19T02:58:21.576Z,78.80
2017-09-19T02:59:21.572Z,81.70
2017-09-19T03:00:21.569Z,103.20
2017-09-19T03:01:21.567Z,88.20
2017-09-19T03:02:21.567Z,96.60
2017-09-19T03:03:21.563Z,94.60
2017-09-19T03:04:21.569Z,83.50
2017-09-19T03:05:21.556Z,86.90
2017-09-19T03:06:21.553Z,92.80
2017-09-19T03:07:21.550Z,87.30
2017-09-19T03:08:21.547Z,96.20
2017-09-19T03:09:21.545Z,94.40
2017-09-19T03:10:21.538Z,85.60
2017-09-19T03:11:21.537Z,88.30
2017-09-19T03:12:21.530Z,98.70
2017-09-19T03:13:21.530Z,86.70
2017-09-19T03:14:21.526Z,89.30
2017-09-19T03:15:21.521Z,88.20
2017-09-19T03:16:21.518Z,93.80
2017-09-19T03:17:21.514Z,82.40
2017-09-19T03:18:21.516Z,82.90
2017-09-19T03:19:21.512Z,80.20
2017-09-19T03:20:21.509Z,85.90
2017-09-19T03:21:21.507Z,74.00
2017-09-19T03:22:21.504Z,85.70
2017-09-19T03:23:21.499Z,73.60
2017-09-19T03:24:21.496Z,85.20
2017-09-19T03:25:21.494Z,86.50
2017-09-19T03:26:21.486Z,82.60
2017-09-19T03:27:21.483Z,77.70
2017-09-19T03:28:21.480Z,87.20
2017-09-19T03:29:21.477Z,86.00
2017-09-19T03:30:21.477Z,84.00
2017-09-19T03:31:21.469Z,84.20
2017-09-19T03:32:21.469Z,87.40
2017-09-19T03:33:21.463Z,79.40
2017-09-19T03:34:21.464Z,79.80
2017-09-19T03:35:21.460Z,89.30
2017-09-19T03:36:21.457Z,87.40
2017-09-19T03:37:21.455Z,89.40
2017-09-19T03:38:21.453Z,81.90
2017-09-19T03:39:21.451Z,85.70
2017-09-19T03:40:21.446Z,93.70
2017-09-19T03:41:21.441Z,84.40
2017-09-19T03:42:21.434Z,78.30
2017-09-19T03:43:21.432Z,75.40
2017-09-19T03:44:21.428Z,84.70
2017-09-19T03:45:21.424Z,80.90
2017-09-19T03:46:21.423Z,84.20
2017-09-19T03:47:21.417Z,78.80
2017-09-19T03:48:21.414Z,73.50
2017-09-19T03:49:21.414Z,80.50
2017-09-19T03:50:21.414Z,80.70
2017-09-19T03:51:21.411Z,81.40
2017-09-19T03:52:21.408Z,75.90
2017-09-19T03:53:21.403Z,87.50
2017-09-19T03:54:21.401Z,91.00
2017-09-19T03:55:21.397Z,81.00
2017-09-19T03:56:21.394Z,90.30
2017-09-19T03:57:21.391Z,81.10
2017-09-19T03:58:21.384Z,82.50
2017-09-19T03:59:21.380Z,82.40
2017-09-19T04:00:21.377Z,77.80
2017-09-19T04:01:21.373Z,79.60
2017-09-19T04:02:21.377Z,76.40
2017-09-19T04:03:21.371Z,78.50
2017-09-19T04:04:21.368Z,79.10
2017-09-19T04:05:21.366Z,76.40
2017-09-19T04:06:21.358Z,76.40
2017-09-19T04:07:21.353Z,69.50
2017-09-19T04:08:21.351Z,86.70
2017-09-19T04:09:21.348Z,81.80
2017-09-19T04:10:21.345Z,84.80
2017-09-19T04:11:21.341Z,75.50
2017-09-19T04:12:21.338Z,73.80
2017-09-19T04:13:21.335Z,71.90
2017-09-19T04:14:21.336Z,75.70
2017-09-19T04:15:21.332Z,80.20
2017-09-19T04:16:21.329Z,79.00
2017-09-19T04:17:21.326Z,83.40
2017-09-19T04:18:21.323Z,74.20
2017-09-19T04:19:21.319Z,78.60
2017-09-19T04:20:21.316Z,79.60
2017-09-19T04:21:21.314Z,80.60
2017-09-19T04:22:21.305Z,82.60
2017-09-19T04:23:21.301Z,82.70
2017-09-19T04:24:21.299Z,89.00
2017-09-19T04:25:21.297Z,79.40
2017-09-19T04:26:21.293Z,84.40
2017-09-19T04:27:21.289Z,87.40
2017-09-19T04:28:21.286Z,89.00
2017-09-19T04:29:21.282Z,86.50
2017-09-19T04:30:21.283Z,87.20
2017-09-19T04:31:21.309Z,87.70
2017-09-19T04:32:21.276Z,81.90
2017-09-19T04:33:21.274Z,87.10
2017-09-19T04:34:21.270Z,94.00
2017-09-19T04:35:21.265Z,81.70
2017-09-19T04:36:21.264Z,85.80
2017-09-19T04:37:21.262Z,90.60
2017-09-19T04:38:21.252Z,82.80
2017-09-19T04:39:21.249Z,79.60
2017-09-19T04:40:21.247Z,80.70
2017-09-19T04:41:21.241Z,81.20
2017-09-19T04:42:21.240Z,83.60
2017-09-19T04:43:21.236Z,75.20
2017-09-19T04:44:21.237Z,74.70
2017-09-19T04:45:21.230Z,77.40
2017-09-19T04:46:21.231Z,82.40
2017-09-19T04:47:21.226Z,84.60
2017-09-19T04:48:21.222Z,95.20
2017-09-19T04:49:21.220Z,101.50
2017-09-19T04:50:21.218Z,96.90
2017-09-19T04:51:21.213Z,87.90
2017-09-19T04:52:21.210Z,92.80
2017-09-19T04:53:21.207Z,99.70
2017-09-19T04:54:21.200Z,102.00
2017-09-19T04:55:21.195Z,93.80
2017-09-19T04:56:21.193Z,90.40
2017-09-19T04:57:21.190Z,95.70
2017-09-19T04:58:21.187Z,91.10
2017-09-19T04:59:21.182Z,93.60
2017-09-19T05:00:21.179Z,92.40
2017-09-19T05:01:21.176Z,95.60
2017-09-19T05:02:21.179Z,100.90
2017-09-19T05:03:21.173Z,102.50
2017-09-19T05:04:21.170Z,103.40
2017-09-19T05:05:21.166Z,106.30
2017-09-19T05:06:21.160Z,100.20
2017-09-19T05:07:21.155Z,91.00
2017-09-19T05:08:21.152Z,89.40
2017-09-19T05:09:21.149Z,90.80
2017-09-19T05:10:21.152Z,92.70
2017-09-19T05:11:21.149Z,102.40
2017-09-19T05:12:21.143Z,94.10
2017-09-19T05:13:21.140Z,96.00
2017-09-19T05:14:21.139Z,78.50
2017-09-19T05:15:21.133Z,91.00
2017-09-19T05:16:21.130Z,91.60
2017-09-19T05:17:21.130Z,92.10
2017-09-19T05:18:21.120Z,98.30
2017-09-19T05:19:21.141Z,89.70
2017-09-19T05:20:21.112Z,94.60
2017-09-19T05:21:21.109Z,98.50
2017-09-19T05:22:21.106Z,98.20
2017-09-19T05:23:21.103Z,106.70
2017-09-19T05:24:21.098Z,97.90
2017-09-19T05:25:21.099Z,102.00
2017-09-19T05:26:21.098Z,93.60
2017-09-19T05:27:21.093Z,97.20
2017-09-19T05:28:21.089Z,103.00
2017-09-19T05:29:21.087Z,112.80
2017-09-19T05:30:21.083Z,103.30
2017-09-19T05:31:21.079Z,97.90
2017-09-19T05:32:21.076Z,101.30
2017-09-19T05:33:21.074Z,111.50
2017-09-19T05:34:21.067Z,104.10
2017-09-19T05:35:21.062Z,98.00
2017-09-19T05:36:21.059Z,92.70
2017-09-19T05:37:21.056Z,89.70
2017-09-19T05:38:21.053Z,92.70
2017-09-19T05:39:21.050Z,92.70
2017-09-19T05:40:21.054Z,93.20
2017-09-19T05:41:21.044Z,91.70
2017-09-19T05:42:21.044Z,96.30
2017-09-19T05:43:21.041Z,96.60
2017-09-19T05:44:21.038Z,95.40
2017-09-19T05:45:21.034Z,96.70
2017-09-19T05:46:21.031Z,108.80
2017-09-19T05:47:21.028Z,100.50
2017-09-19T05:48:21.024Z,96.00
2017-09-19T05:49:21.022Z,99.10
2017-09-19T05:50:21.013Z,102.80
2017-09-19T05:51:21.010Z,93.20
2017-09-19T05:52:21.007Z,107.00
2017-09-19T05:53:21.005Z,113.70
2017-09-19T05:54:21.000Z,105.40
2017-09-19T05:55:20.997Z,107.20
2017-09-19T05:56:20.994Z,105.50
2017-09-19T05:57:20.991Z,101.60
2017-09-19T05:58:20.992Z,107.60
2017-09-19T05:59:20.988Z,108.90
2017-09-19T06:00:20.987Z,101.90
2017-09-19T06:01:20.983Z,104.00
2017-09-19T06:02:20.980Z,112.00
2017-09-19T06:03:20.974Z,102.80
2017-09-19T06:04:20.973Z,108.90
2017-09-19T06:05:20.970Z,96.80
2017-09-19T06:06:20.962Z,90.20
2017-09-19T06:07:20.960Z,110.10
2017-09-19T06:08:20.955Z,101.80
2017-09-19T06:09:20.954Z,93.60
2017-09-19T06:10:20.955Z,100.10
2017-09-19T06:11:20.951Z,100.50
2017-09-19T06:12:20.947Z,92.30
2017-09-19T06:13:20.944Z,104.20
2017-09-19T06:14:20.937Z,108.00
2017-09-19T06:15:20.935Z,94.80
2017-09-19T06:16:20.931Z,84.30
2017-09-19T06:17:20.928Z,93.30
2017-09-19T06:18:20.925Z,88.40
2017-09-19T06:19:20.920Z,103.90
2017-09-19T06:20:20.918Z,108.70
2017-09-19T06:21:20.915Z,113.20
2017-09-19T06:22:20.921Z,88.60
2017-09-19T06:23:20.913Z,91.00
2017-09-19T06:24:20.913Z,121.10
2017-09-19T06:25:20.909Z,118.60
2017-09-19T06:26:20.904Z,106.10
2017-09-19T06:27:20.901Z,121.20
2017-09-19T06:28:20.897Z,117.00
2017-09-19T06:29:20.894Z,104.60
2017-09-19T06:30:20.889Z,107.00
2017-09-19T06:31:20.883Z,110.40
2017-09-19T06:32:20.883Z,119.60
2017-09-19T06:33:20.878Z,104.00
2017-09-19T06:34:20.876Z,109.60
2017-09-19T06:35:20.872Z,99.50
2017-09-19T06:36:20.868Z,87.10
2017-09-19T06:37:20.865Z,92.20
2017-09-19T06:38:20.867Z,86.00
2017-09-19T06:39:20.865Z,91.90
2017-09-19T06:40:20.861Z,85.10
2017-09-19T06:41:20.858Z,85.40
2017-09-19T06:42:20.856Z,84.30
2017-09-19T06:43:20.852Z,91.30
2017-09-19T06:44:20.849Z,81.80
2017-09-19T06:45:20.846Z,83.50
2017-09-19T06:46:20.839Z,79.50
2017-09-19T06:47:20.836Z,74.50
2017-09-19T06:48:20.833Z,71.80
2017-09-19T06:49:20.830Z,79.30
2017-09-19T06:50:20.827Z,75.00
2017-09-19T06:51:20.824Z,76.10
2017-09-19T06:52:20.846Z,80.90
2017-09-19T06:53:20.818Z,77.90
2017-09-19T06:54:20.821Z,82.10
2017-09-19T06:55:20.815Z,82.20
2017-09-19T06:56:20.812Z,90.50
2017-09-19T06:57:20.810Z,88.00
2017-09-19T06:58:20.808Z,84.10
2017-09-19T06:59:20.803Z,95.90
2017-09-19T07:00:20.801Z,89.10
2017-09-19T07:01:20.798Z,88.30
2017-09-19T07:02:20.793Z,92.70
2017-09-19T07:03:20.792Z,87.70
2017-09-19T07:04:20.785Z,80.00
2017-09-19T07:05:20.782Z,82.80
2017-09-19T07:06:20.782Z,81.30
2017-09-19T07:07:20.775Z,84.90
2017-09-19T07:08:20.775Z,96.80
2017-09-19T07:09:20.773Z,85.60
2017-09-19T07:10:20.773Z,86.10
2017-09-19T07:11:20.769Z,87.00
2017-09-19T07:12:20.766Z,80.40
2017-09-19T07:13:20.765Z,89.30
2017-09-19T07:14:20.757Z,84.20
2017-09-19T07:15:20.753Z,84.90
2017-09-19T07:16:20.752Z,73.60
2017-09-19T07:17:20.753Z,73.90
2017-09-19T07:18:20.748Z,84.40
2017-09-19T07:19:20.745Z,80.60
2017-09-19T07:20:20.743Z,73.40
2017-09-19T07:21:20.740Z,80.10
2017-09-19T07:22:20.738Z,72.70
2017-09-19T07:23:20.733Z,71.10
2017-09-19T07:24:20.733Z,68.20
2017-09-19T07:25:20.729Z,80.90
2017-09-19T07:26:20.724Z,73.60
2017-09-19T07:27:20.718Z,74.10
2017-09-19T07:28:20.716Z,75.50
2017-09-19T07:29:20.713Z,75.20
2017-09-19T07:30:20.711Z,76.30
2017-09-19T07:31:20.708Z,74.10
2017-09-19T07:32:20.705Z,78.50
2017-09-19T07:33:20.712Z,68.20
2017-09-19T07:34:20.704Z,74.10
2017-09-19T07:35:20.700Z,77.80
2017-09-19T07:36:20.699Z,64.90
2017-09-19T07:37:20.695Z,69.00
2017-09-19T07:38:20.692Z,60.70
2017-09-19T07:39:20.691Z,59.40
2017-09-19T07:40:20.786Z,55.00
2017-09-19T07:41:20.686Z,57.40
2017-09-19T07:42:20.679Z,56.10
2017-09-19T07:43:20.674Z,63.00
2017-09-19T07:44:20.673Z,63.30
2017-09-19T07:45:20.670Z,61.50
2017-09-19T07:46:20.666Z,60.00
2017-09-19T07:47:20.665Z,51.80
2017-09-19T07:48:20.663Z,55.90
2017-09-19T07:49:20.660Z,54.50
2017-09-19T07:50:20.661Z,51.60
2017-09-19T07:51:20.660Z,56.50
2017-09-19T07:52:20.659Z,53.90
2017-09-19T07:53:20.654Z,52.50
2017-09-19T07:54:20.651Z,59.70
2017-09-19T07:55:20.649Z,51.50
2017-09-19T07:56:20.647Z,51.70
2017-09-19T07:57:20.647Z,55.90
2017-09-19T07:58:20.638Z,48.90
2017-09-19T07:59:20.635Z,56.40
2017-09-19T08:00:20.632Z,59.00
2017-09-19T08:01:20.629Z,51.80
2017-09-19T08:02:20.628Z,54.80
2017-09-19T08:03:20.623Z,50.90
2017-09-19T08:04:20.623Z,57.60
2017-09-19T08:05:20.621Z,64.10
2017-09-19T08:06:20.622Z,61.60
2017-09-19T08:07:20.620Z,58.80
2017-09-19T08:08:20.617Z,60.40
2017-09-19T08:09:20.615Z,54.20
2017-09-19T08:10:20.613Z,49.30
2017-09-19T08:11:20.610Z,49.50
2017-09-19T08:12:20.608Z,49.30
2017-09-19T08:13:20.606Z,52.00
2017-09-19T08:14:20.602Z,50.50
2017-09-19T08:15:20.598Z,49.90
2017-09-19T08:16:20.599Z,48.90
2017-09-19T08:17:20.594Z,54.80
2017-09-19T08:18:20.597Z,57.60
2017-09-19T08:19:20.595Z,52.30
2017-09-19T08:20:20.592Z,50.30
2017-09-19T08:21:20.593Z,52.90
2017-09-19T08:22:20.591Z,54.00
2017-09-19T08:23:20.583Z,56.90
2017-09-19T08:24:20.581Z,58.50
2017-09-19T08:25:20.580Z,54.00
2017-09-19T08:26:20.580Z,62.80
2017-09-19T08:27:20.576Z,65.20
2017-09-19T08:28:20.582Z,60.80
2017-09-19T08:29:20.573Z,61.80
2017-09-19T08:30:20.578Z,57.60
2017-09-19T08:31:20.575Z,57.00
2017-09-19T08:32:20.574Z,57.60
2017-09-19T08:33:20.573Z,59.70
2017-09-19T08:34:20.572Z,62.20
2017-09-19T08:35:20.569Z,66.00
2017-09-19T08:36:20.567Z,62.50
2017-09-19T08:37:20.566Z,56.80
2017-09-19T08:38:20.566Z,58.50
2017-09-19T08:39:20.561Z,58.60
2017-09-19T08:40:20.587Z,58.40
2017-09-19T08:41:20.559Z,52.80
2017-09-19T08:42:20.556Z,53.90
2017-09-19T08:43:20.553Z,47.00
2017-09-19T08:44:20.553Z,45.50
2017-09-19T08:45:20.552Z,51.50
2017-09-19T08:46:20.555Z,59.10
2017-09-19T08:47:20.554Z,54.80
2017-09-19T08:48:20.554Z,55.40
2017-09-19T08:49:20.551Z,55.60
2017-09-19T08:50:20.549Z,48.70
2017-09-19T08:51:20.551Z,49.80
2017-09-19T08:52:20.547Z,56.60
2017-09-19T08:53:20.545Z,52.00
2017-09-19T08:54:20.542Z,53.50
2017-09-19T08:55:20.547Z,51.60
2017-09-19T08:56:20.544Z,55.90
2017-09-19T08:57:20.661Z,51.20
2017-09-19T08:58:20.797Z,57.70
2017-09-19T08:59:20.540Z,57.20
2017-09-19T09:00:20.653Z,58.80
2017-09-19T09:01:20.702Z,58.40
2017-09-19T09:02:20.647Z,57.70
2017-09-19T09:03:20.556Z,57.30
2017-09-19T09:04:20.570Z,55.60
2017-09-19T09:05:20.592Z,55.70
2017-09-19T09:06:20.694Z,61.30
2017-09-19T09:07:20.585Z,56.10
2017-09-19T09:08:20.612Z,57.60
2017-09-19T09:09:20.602Z,49.40
2017-09-19T09:10:20.523Z,50.90
2017-09-19T09:11:20.526Z,56.80
2017-09-19T09:12:20.530Z,53.80
2017-09-19T09:13:20.727Z,53.70
2017-09-19T09:14:20.585Z,48.90
2017-09-19T09:15:20.567Z,49.70
2017-09-19T09:16:20.615Z,43.90
2017-09-19T09:17:20.516Z,45.50
2017-09-19T09:18:20.518Z,46.40
2017-09-19T09:19:20.518Z,46.60
2017-09-19T09:20:20.517Z,49.70
2017-09-19T09:21:20.517Z,42.60
2017-09-19T09:22:20.512Z,44.60
2017-09-19T09:23:20.511Z,46.20
2017-09-19T09:24:20.511Z,45.80
2017-09-19T09:25:20.511Z,43.00
2017-09-19T09:26:20.515Z,41.50
2017-09-19T09:27:20.513Z,46.30
2017-09-19T09:28:20.514Z,41.50
2017-09-19T09:29:20.513Z,43.20
2017-09-19T09:30:20.513Z,43.60
2017-09-19T09:31:20.512Z,44.00
2017-09-19T09:32:20.514Z,40.50
2017-09-19T09:33:20.512Z,40.00
2017-09-19T09:34:20.508Z,42.30
2017-09-19T09:35:20.507Z,42.20
2017-09-19T09:36:20.508Z,44.00
2017-09-19T09:37:20.508Z,41.20
2017-09-19T09:38:20.509Z,45.60
2017-09-19T09:39:20.508Z,41.00
2017-09-19T09:40:20.508Z,42.20
2017-09-19T09:41:20.508Z,48.20
2017-09-19T09:42:20.515Z,40.10
2017-09-19T09:43:20.512Z,42.00
2017-09-19T09:44:20.511Z,41.80
2017-09-19T09:45:20.512Z,41.00
2017-09-19T09:46:20.513Z,37.60
2017-09-19T09:47:20.513Z,38.00
2017-09-19T09:48:20.513Z,36.70
2017-09-19T09:49:20.514Z,34.70
2017-09-19T09:50:20.509Z,37.60
2017-09-19T09:51:20.513Z,31.20
2017-09-19T09:52:20.511Z,33.40
2017-09-19T09:53:20.511Z,34.20
2017-09-19T09:54:20.514Z,35.80
2017-09-19T09:55:20.513Z,34.10
2017-09-19T09:56:20.514Z,34.70
2017-09-19T09:57:20.514Z,35.80
2017-09-19T09:58:20.521Z,32.00
2017-09-19T09:59:20.520Z,32.60
2017-09-19T10:00:20.523Z,32.70
2017-09-19T10:01:20.524Z,37.60
2017-09-19T10:02:20.525Z,35.80
2017-09-19T10:03:20.529Z,35.80
2017-09-19T10:04:20.528Z,34.90
2017-09-19T10:05:20.529Z,35.70
2017-09-19T10:06:20.526Z,36.80
2017-09-19T10:07:20.526Z,36.70
2017-09-19T10:08:20.527Z,40.00
2017-09-19T10:09:20.529Z,39.70
2017-09-19T10:10:20.536Z,41.70
2017-09-19T10:11:20.531Z,41.40
2017-09-19T10:12:20.531Z,42.20
2017-09-19T10:13:20.567Z,37.60
2017-09-19T10:14:20.539Z,39.00
2017-09-19T10:15:20.537Z,33.90
2017-09-19T10:16:20.540Z,34.70
2017-09-19T10:17:20.640Z,37.10
2017-09-19T10:18:20.542Z,35.10
2017-09-19T10:19:20.541Z,37.40
2017-09-19T10:20:20.542Z,33.80
2017-09-19T10:21:20.544Z,32.40
2017-09-19T10:22:20.539Z,35.10
2017-09-19T10:23:20.539Z,34.50
2017-09-19T10:24:20.540Z,31.80
2017-09-19T10:25:20.540Z,34.30
2017-09-19T10:26:20.547Z,29.10
2017-09-19T10:27:20.547Z,31.40
2017-09-19T10:28:20.548Z,29.90
2017-09-19T10:29:20.548Z,32.40
2017-09-19T10:30:20.548Z,33.20
2017-09-19T10:31:20.545Z,36.40
2017-09-19T10:32:20.548Z,34.10
2017-09-19T10:33:20.549Z,35.20
2017-09-19T10:34:20.550Z,35.30
2017-09-19T10:35:20.550Z,35.40
2017-09-19T10:36:20.550Z,39.20
2017-09-19T10:37:20.553Z,38.70
2017-09-19T10:38:20.557Z,35.50
2017-09-19T10:39:20.556Z,38.90
2017-09-19T10:40:20.560Z,35.30
2017-09-19T10:41:20.561Z,34.80
2017-09-19T10:42:20.563Z,37.50
2017-09-19T10:43:20.562Z,36.20
2017-09-19T10:44:20.563Z,34.40
2017-09-19T10:45:20.565Z,31.80
2017-09-19T10:46:20.564Z,29.70
2017-09-19T10:47:20.565Z,27.40
2017-09-19T10:48:20.569Z,30.30
2017-09-19T10:49:20.571Z,31.00
2017-09-19T10:50:20.576Z,28.40
2017-09-19T10:51:20.578Z,25.40
2017-09-19T10:52:20.583Z,27.00
2017-09-19T10:53:20.587Z,22.90
2017-09-19T10:54:20.596Z,24.20
2017-09-19T10:55:20.601Z,23.00
2017-09-19T10:56:20.606Z,24.50
2017-09-19T10:57:20.613Z,22.30
2017-09-19T10:58:20.629Z,24.80
2017-09-19T10:59:20.625Z,22.90
2017-09-19T11:00:20.632Z,24.30
2017-09-19T11:01:20.657Z,24.60
2017-09-19T11:02:20.642Z,22.50
2017-09-19T11:03:20.648Z,22.50
2017-09-19T11:04:20.656Z,21.80
2017-09-19T11:05:20.666Z,21.90
2017-09-19T11:06:20.678Z,21.80
2017-09-19T11:07:20.681Z,22.60
2017-09-19T11:08:20.693Z,21.50
2017-09-19T11:09:20.699Z,21.30
2017-09-19T11:10:20.710Z,20.90
2017-09-19T11:11:20.720Z,21.80
2017-09-19T11:12:20.728Z,21.40
2017-09-19T11:13:20.739Z,22.90
2017-09-19T11:14:20.747Z,23.90
2017-09-19T11:15:20.758Z,24.40
2017-09-19T11:16:20.766Z,25.40
2017-09-19T11:17:20.775Z,29.00
2017-09-19T11:18:20.783Z,27.50
2017-09-19T11:19:20.787Z,26.80
2017-09-19T11:20:20.796Z,27.30
2017-09-19T11:21:20.805Z,28.30
2017-09-19T11:22:20.813Z,32.00
2017-09-19T11:23:20.825Z,32.00
2017-09-19T11:24:20.827Z,33.90
2017-09-19T11:25:20.835Z,33.90
2017-09-19T11:26:20.846Z,35.20
2017-09-19T11:27:20.851Z,34.40
2017-09-19T11:28:20.859Z,37.70
2017-09-19T11:29:20.866Z,33.90
2017-09-19T11:30:20.871Z,36.70
2017-09-19T11:31:20.878Z,36.00
2017-09-19T11:32:20.881Z,36.90
2017-09-19T11:33:20.887Z,38.30
2017-09-19T11:34:20.888Z,34.40
2017-09-19T11:35:20.891Z,35.00
2017-09-19T11:36:20.897Z,34.70
2017-09-19T11:37:20.901Z,35.20
2017-09-19T11:38:20.904Z,33.50
2017-09-19T11:39:20.909Z,34.00
2017-09-19T11:40:20.912Z,40.30
2017-09-19T11:41:20.916Z,37.60
2017-09-19T11:42:20.923Z,41.40
2017-09-19T11:43:20.924Z,38.80
2017-09-19T11:44:20.930Z,38.10
2017-09-19T11:45:20.931Z,37.30
2017-09-19T11:46:20.935Z,36.80
2017-09-19T11:47:20.935Z,39.50
2017-09-19T11:48:20.937Z,40.90
2017-09-19T11:49:20.940Z,42.20
2017-09-19T11:50:20.938Z,41.50
2017-09-19T11:51:20.941Z,40.90
2017-09-19T11:52:20.941Z,39.50
2017-09-19T11:53:20.943Z,40.60
2017-09-19T11:54:20.945Z,38.60
2017-09-19T11:55:20.946Z,36.00
2017-09-19T11:56:20.947Z,35.00
2017-09-19T11:57:20.948Z,43.20
2017-09-19T11:58:20.954Z,39.10
2017-09-19T11:59:20.956Z,37.60
2017-09-19T12:00:20.956Z,35.60
2017-09-19T12:01:20.957Z,33.00
2017-09-19T12:02:20.959Z,36.10
2017-09-19T12:03:20.960Z,33.90
2017-09-19T12:04:20.961Z,32.10
2017-09-19T12:05:20.963Z,35.60
2017-09-19T12:06:20.959Z,32.90
2017-09-19T12:07:20.959Z,33.50
2017-09-19T12:08:20.960Z,32.10
2017-09-19T12:09:20.963Z,31.90
2017-09-19T12:10:20.964Z,33.50
2017-09-19T12:11:20.964Z,31.00
2017-09-19T12:12:20.965Z,29.70
2017-09-19T12:13:20.967Z,34.30
2017-09-19T12:14:20.973Z,32.20
2017-09-19T12:15:20.975Z,34.10
2017-09-19T12:16:20.974Z,32.00
2017-09-19T12:17:20.977Z,31.90
2017-09-19T12:18:20.978Z,31.10
2017-09-19T12:19:20.978Z,27.90
2017-09-19T12:20:20.979Z,31.10
2017-09-19T12:21:20.982Z,31.60
2017-09-19T12:22:20.980Z,30.50
2017-09-19T12:23:20.981Z,30.90
2017-09-19T12:24:20.980Z,31.70
2017-09-19T12:25:20.982Z,29.20
2017-09-19T12:26:20.984Z,27.10
2017-09-19T12:27:20.985Z,31.10
2017-09-19T12:28:20.988Z,30.00
2017-09-19T12:29:20.989Z,27.60
2017-09-19T12:30:20.995Z,28.90
2017-09-19T12:31:20.994Z,27.80
2017-09-19T12:32:20.997Z,31.20
2017-09-19T12:33:20.998Z,25.20
2017-09-19T12:34:20.996Z,28.00
2017-09-19T12:35:20.998Z,29.10
2017-09-19T12:36:20.998Z,28.50
2017-09-19T12:37:21.000Z,29.80
2017-09-19T12:38:21.005Z,26.90
2017-09-19T12:39:21.006Z,28.50
2017-09-19T12:40:21.008Z,26.80
2017-09-19T12:41:21.012Z,26.10
2017-09-19T12:42:21.011Z,25.00
2017-09-19T12:43:21.012Z,23.40
2017-09-19T12:44:21.012Z,27.10
2017-09-19T12:45:21.012Z,21.80
2017-09-19T12:46:21.013Z,21.40
2017-09-19T12:47:21.011Z,29.10
2017-09-19T12:48:21.012Z,24.50
2017-09-19T12:49:21.012Z,23.70
2017-09-19T12:50:21.014Z,22.40